Terminal Aerodrome Forecast
Issued by NWS San Angelo, TX

Home | Current Version | Previous Version | Text Only | Print | Product List | Glossary On
Versions: 1 2 3 4 5 6 7 8 9 10 11 12 13 14 15 16 17 18 19 20
364
FTUS44 KSJT 101149
TAFSJT
TAF
KSJT 101149Z 1012/1112 19006KT P6SM SCT250
     FM101800 19012G20KT P6SM FEW250
     FM110000 19010KT P6SM SKC
     FM110500 20014G22KT P6SM SKC=

USA.gov is the U.S. government's official web portal to all federal, state and local government web resources and services.